createdAt,value
2023-05-18T00:00:56.000Z,7.3
2023-05-18T00:02:12.000Z,7.3
2023-05-18T00:03:27.000Z,7.3
2023-05-18T00:04:43.000Z,7.3
2023-05-18T00:05:59.000Z,7.3
2023-05-18T00:07:16.000Z,7.2
2023-05-18T00:08:32.000Z,7.2
2023-05-18T00:09:48.000Z,7.2
2023-05-18T00:11:03.000Z,7.2
2023-05-18T00:12:19.000Z,7.2
2023-05-18T00:13:35.000Z,7.2
2023-05-18T00:14:52.000Z,7.2
2023-05-18T00:16:08.000Z,7.2
2023-05-18T00:17:24.000Z,7.1
2023-05-18T00:18:40.000Z,7.1
2023-05-18T00:19:56.000Z,7.1
2023-05-18T00:21:12.000Z,7.1
2023-05-18T00:22:28.000Z,7.1
2023-05-18T00:23:44.000Z,7.1
2023-05-18T00:25:01.000Z,7.1
2023-05-18T00:26:17.000Z,7.1
2023-05-18T00:27:32.000Z,7
2023-05-18T00:28:48.000Z,7
2023-05-18T00:30:04.000Z,7
2023-05-18T00:31:20.000Z,7
2023-05-18T00:32:36.000Z,7
2023-05-18T00:33:53.000Z,7
2023-05-18T00:35:09.000Z,7
2023-05-18T00:36:25.000Z,7
2023-05-18T00:37:41.000Z,7
2023-05-18T00:38:57.000Z,7
2023-05-18T00:40:13.000Z,7
2023-05-18T00:41:29.000Z,7
2023-05-18T00:42:46.000Z,7
2023-05-18T00:44:01.000Z,7
2023-05-18T00:45:17.000Z,7
2023-05-18T00:46:33.000Z,7
2023-05-18T00:47:49.000Z,7
2023-05-18T00:49:05.000Z,7
2023-05-18T00:50:21.000Z,6.9
2023-05-18T00:51:38.000Z,6.9
2023-05-18T00:52:54.000Z,6.9
2023-05-18T00:54:10.000Z,6.9
2023-05-18T00:55:26.000Z,6.8
2023-05-18T00:56:42.000Z,6.8
2023-05-18T00:57:58.000Z,6.8
2023-05-18T00:59:14.000Z,6.8
2023-05-18T01:00:30.000Z,6.8
2023-05-18T01:01:46.000Z,6.9
2023-05-18T01:03:02.000Z,6.9
2023-05-18T01:04:18.000Z,6.9
2023-05-18T01:05:34.000Z,6.9
2023-05-18T01:06:50.000Z,7
2023-05-18T01:08:06.000Z,7
2023-05-18T01:09:23.000Z,7
2023-05-18T01:10:39.000Z,7
2023-05-18T01:11:55.000Z,7
2023-05-18T01:13:11.000Z,7
2023-05-18T01:14:27.000Z,7.1
2023-05-18T01:15:43.000Z,7.1
2023-05-18T01:16:58.000Z,7.1
2023-05-18T01:18:15.000Z,7.1
2023-05-18T01:19:31.000Z,7.1
2023-05-18T01:20:47.000Z,7.2
2023-05-18T01:22:03.000Z,7.2
2023-05-18T01:23:19.000Z,7.2
2023-05-18T01:24:35.000Z,7.2
2023-05-18T01:25:51.000Z,7.2
2023-05-18T01:27:08.000Z,7.2
2023-05-18T01:28:24.000Z,7.2
2023-05-18T01:29:40.000Z,7.3
2023-05-18T01:30:56.000Z,7.3
2023-05-18T01:32:12.000Z,7.3
2023-05-18T01:33:27.000Z,7.3
2023-05-18T01:34:43.000Z,7.3
2023-05-18T01:36:00.000Z,7.3
2023-05-18T01:37:16.000Z,7.2
2023-05-18T01:38:32.000Z,7.2
2023-05-18T01:39:48.000Z,7.2
2023-05-18T01:41:04.000Z,7.1
2023-05-18T01:42:20.000Z,7.1
2023-05-18T01:43:36.000Z,7.1
2023-05-18T01:44:53.000Z,7.1
2023-05-18T01:46:09.000Z,7
2023-05-18T01:47:25.000Z,7
2023-05-18T01:48:41.000Z,7
2023-05-18T01:49:56.000Z,7
2023-05-18T01:51:12.000Z,7
2023-05-18T01:52:28.000Z,7
2023-05-18T01:53:45.000Z,6.9
2023-05-18T01:55:01.000Z,7
2023-05-18T01:56:17.000Z,7
2023-05-18T01:57:33.000Z,7
2023-05-18T01:58:49.000Z,7
2023-05-18T02:00:05.000Z,7
2023-05-18T02:01:21.000Z,7
2023-05-18T02:02:37.000Z,7
2023-05-18T02:03:54.000Z,7
2023-05-18T02:05:10.000Z,7
2023-05-18T02:06:25.000Z,7
2023-05-18T02:07:41.000Z,7
2023-05-18T02:08:57.000Z,7
2023-05-18T02:10:13.000Z,7
2023-05-18T02:11:29.000Z,7
2023-05-18T02:12:46.000Z,7
2023-05-18T02:14:02.000Z,7
2023-05-18T02:15:18.000Z,7
2023-05-18T02:16:34.000Z,7
2023-05-18T02:17:50.000Z,7
2023-05-18T02:19:06.000Z,7
2023-05-18T02:20:22.000Z,7
2023-05-18T02:21:39.000Z,7
2023-05-18T02:22:54.000Z,7.1
2023-05-18T02:24:10.000Z,7.1
2023-05-18T02:25:26.000Z,7.1
2023-05-18T02:26:42.000Z,7.1
2023-05-18T02:27:58.000Z,7.1
2023-05-18T02:29:14.000Z,7.1
2023-05-18T02:30:31.000Z,7.1
2023-05-18T02:31:47.000Z,7.1
2023-05-18T02:33:03.000Z,7.1
2023-05-18T02:34:19.000Z,7.1
2023-05-18T02:35:35.000Z,7.2
2023-05-18T02:36:51.000Z,7.2
2023-05-18T02:38:07.000Z,7.1
2023-05-18T02:39:23.000Z,7.1
2023-05-18T02:40:39.000Z,7.1
2023-05-18T02:41:55.000Z,7.1
2023-05-18T02:43:11.000Z,7.1
2023-05-18T02:44:27.000Z,7.1
2023-05-18T02:45:43.000Z,7.1
2023-05-18T02:46:59.000Z,7.1
2023-05-18T02:48:16.000Z,7.1
2023-05-18T02:49:32.000Z,7.1
2023-05-18T02:50:48.000Z,7.1
2023-05-18T02:52:04.000Z,7.2
2023-05-18T02:53:20.000Z,7.2
2023-05-18T02:54:36.000Z,7.2
2023-05-18T02:55:51.000Z,7.2
2023-05-18T02:57:08.000Z,7.2
2023-05-18T02:58:24.000Z,7.2
2023-05-18T02:59:40.000Z,7.2
2023-05-18T03:00:56.000Z,7.2
2023-05-18T03:02:12.000Z,7.3
2023-05-18T03:03:28.000Z,7.3
2023-05-18T03:04:44.000Z,7.3
2023-05-18T03:06:01.000Z,7.3
2023-05-18T03:07:17.000Z,7.3
2023-05-18T03:08:33.000Z,7.3
2023-05-18T03:09:49.000Z,7.4
2023-05-18T03:11:05.000Z,7.4
2023-05-18T03:12:20.000Z,7.4
2023-05-18T03:13:36.000Z,7.4
2023-05-18T03:14:53.000Z,7.4
2023-05-18T03:16:09.000Z,7.5
2023-05-18T03:17:25.000Z,7.5
2023-05-18T03:18:41.000Z,7.5
2023-05-18T03:19:57.000Z,7.5
2023-05-18T03:21:13.000Z,7.5
2023-05-18T03:22:29.000Z,7.6
2023-05-18T03:23:46.000Z,7.6
2023-05-18T03:25:02.000Z,7.6
2023-05-18T03:26:18.000Z,7.6
2023-05-18T03:27:34.000Z,7.6
2023-05-18T03:28:49.000Z,7.6
2023-05-18T03:30:05.000Z,7.6
2023-05-18T03:31:21.000Z,7.7
2023-05-18T03:32:38.000Z,7.7
2023-05-18T03:33:54.000Z,7.7
2023-05-18T03:35:10.000Z,7.7
2023-05-18T03:36:26.000Z,7.7
2023-05-18T03:37:42.000Z,7.7
2023-05-18T03:38:58.000Z,7.8
2023-05-18T03:40:14.000Z,7.8
2023-05-18T03:41:31.000Z,7.8
2023-05-18T03:42:47.000Z,7.8
2023-05-18T03:44:03.000Z,7.8
2023-05-18T03:45:18.000Z,7.9
2023-05-18T03:46:34.000Z,7.9
2023-05-18T03:47:50.000Z,7.9
2023-05-18T03:49:06.000Z,7.9
2023-05-18T03:50:22.000Z,7.9
2023-05-18T03:51:39.000Z,8
2023-05-18T03:52:55.000Z,8
2023-05-18T03:54:11.000Z,8
2023-05-18T03:55:27.000Z,8
2023-05-18T03:56:43.000Z,8.1
2023-05-18T03:57:59.000Z,8.1
2023-05-18T03:59:15.000Z,8.1
2023-05-18T04:00:32.000Z,8.1
2023-05-18T04:01:47.000Z,8.1
2023-05-18T04:03:03.000Z,8.2
2023-05-18T04:04:19.000Z,8.2
2023-05-18T04:05:35.000Z,8.2
2023-05-18T04:06:51.000Z,8.3
2023-05-18T04:08:07.000Z,8.3
2023-05-18T04:09:24.000Z,8.3
2023-05-18T04:10:40.000Z,8.4
2023-05-18T04:11:56.000Z,8.4
2023-05-18T04:13:12.000Z,8.4
2023-05-18T04:14:28.000Z,8.4
2023-05-18T04:15:44.000Z,8.5
2023-05-18T04:17:00.000Z,8.5
2023-05-18T04:18:16.000Z,8.5
2023-05-18T04:19:32.000Z,8.6
2023-05-18T04:20:48.000Z,8.6
2023-05-18T04:22:04.000Z,8.6
2023-05-18T04:23:20.000Z,8.7
2023-05-18T04:24:36.000Z,8.7
2023-05-18T04:25:51.000Z,8.7
2023-05-18T04:27:08.000Z,8.7
2023-05-18T04:28:24.000Z,8.8
2023-05-18T04:29:40.000Z,8.8
2023-05-18T04:30:56.000Z,8.8
2023-05-18T04:32:12.000Z,8.8
2023-05-18T04:33:28.000Z,8.9
2023-05-18T04:34:44.000Z,8.9
2023-05-18T04:36:01.000Z,9
2023-05-18T04:37:17.000Z,9
2023-05-18T04:38:33.000Z,9
2023-05-18T04:39:49.000Z,9.1
2023-05-18T04:41:05.000Z,9.1
2023-05-18T04:42:20.000Z,9.2
2023-05-18T04:43:36.000Z,9.2
2023-05-18T04:44:53.000Z,9.2
2023-05-18T04:46:09.000Z,9.3
2023-05-18T04:47:25.000Z,9.3
2023-05-18T04:48:41.000Z,9.4
2023-05-18T04:49:57.000Z,9.4
2023-05-18T04:51:13.000Z,9.5
2023-05-18T04:52:29.000Z,9.5
2023-05-18T04:53:46.000Z,9.6
2023-05-18T04:55:02.000Z,9.6
2023-05-18T04:56:18.000Z,9.6
2023-05-18T04:57:34.000Z,9.7
2023-05-18T04:58:49.000Z,9.8
2023-05-18T05:00:05.000Z,9.8
2023-05-18T05:01:21.000Z,9.8
2023-05-18T05:02:38.000Z,9.9
2023-05-18T05:03:54.000Z,9.9
2023-05-18T05:05:10.000Z,10
2023-05-18T05:06:26.000Z,10
2023-05-18T05:07:42.000Z,10.1
2023-05-18T05:08:58.000Z,10.2
2023-05-18T05:10:14.000Z,10.2
2023-05-18T05:11:31.000Z,10.2
2023-05-18T05:12:47.000Z,10.3
2023-05-18T05:14:03.000Z,10.3
2023-05-18T05:15:18.000Z,10.3
2023-05-18T05:16:34.000Z,10.4
2023-05-18T05:17:50.000Z,10.4
2023-05-18T05:19:06.000Z,10.5
2023-05-18T05:20:23.000Z,10.5
2023-05-18T05:21:39.000Z,10.6
2023-05-18T05:22:55.000Z,10.6
2023-05-18T05:24:11.000Z,10.6
2023-05-18T05:25:27.000Z,10.6
2023-05-18T05:26:43.000Z,10.7
2023-05-18T05:29:16.000Z,10.7
2023-05-18T05:30:32.000Z,10.8
2023-05-18T05:31:47.000Z,10.8
2023-05-18T05:33:03.000Z,10.8
2023-05-18T05:34:19.000Z,10.8
2023-05-18T05:35:35.000Z,10.8
2023-05-18T05:36:51.000Z,10.9
2023-05-18T05:38:08.000Z,10.9
2023-05-18T05:39:24.000Z,11
2023-05-18T05:40:40.000Z,11
2023-05-18T05:41:56.000Z,11.1
2023-05-18T05:43:12.000Z,11.1
2023-05-18T05:44:28.000Z,11.2
2023-05-18T05:45:44.000Z,11.2
2023-05-18T05:47:01.000Z,11.3
2023-05-18T05:48:16.000Z,11.3
2023-05-18T05:49:32.000Z,11.3
2023-05-18T05:50:48.000Z,11.4
2023-05-18T05:52:04.000Z,11.4
2023-05-18T05:53:20.000Z,11.4
2023-05-18T05:54:36.000Z,11.4
2023-05-18T05:55:52.000Z,11.4
2023-05-18T05:57:09.000Z,11.4
2023-05-18T05:58:25.000Z,11.4
2023-05-18T05:59:41.000Z,11.3
2023-05-18T06:00:57.000Z,11.3
2023-05-18T06:02:13.000Z,11.2
2023-05-18T06:03:29.000Z,11.2
2023-05-18T06:04:45.000Z,11.2
2023-05-18T06:06:01.000Z,11.1
2023-05-18T06:07:17.000Z,11.2
2023-05-18T06:08:33.000Z,11.2
2023-05-18T06:09:49.000Z,11.2
2023-05-18T06:11:05.000Z,11.1
2023-05-18T06:12:21.000Z,11
2023-05-18T06:13:37.000Z,10.9
2023-05-18T06:14:54.000Z,10.9
2023-05-18T06:16:10.000Z,10.8
2023-05-18T06:17:26.000Z,10.8
2023-05-18T06:18:42.000Z,10.7
2023-05-18T06:19:58.000Z,10.7
2023-05-18T06:21:13.000Z,10.6
2023-05-18T06:22:29.000Z,10.6
2023-05-18T06:23:46.000Z,10.5
2023-05-18T06:25:02.000Z,10.5
2023-05-18T06:26:18.000Z,10.5
2023-05-18T06:27:34.000Z,10.5
2023-05-18T06:28:50.000Z,10.5
2023-05-18T06:30:06.000Z,10.4
2023-05-18T06:31:22.000Z,10.4
2023-05-18T06:32:39.000Z,10.4
2023-05-18T06:33:55.000Z,10.4
2023-05-18T06:35:11.000Z,10.3
2023-05-18T06:36:27.000Z,10.3
2023-05-18T06:37:42.000Z,10.3
2023-05-18T06:38:58.000Z,10.3
2023-05-18T06:41:31.000Z,10.3
2023-05-18T06:42:47.000Z,10.4
2023-05-18T06:44:03.000Z,10.4
2023-05-18T06:45:19.000Z,10.4
2023-05-18T06:46:35.000Z,10.5
2023-05-18T06:47:51.000Z,10.5
2023-05-18T06:49:07.000Z,10.6
2023-05-18T06:50:24.000Z,10.6
2023-05-18T06:51:40.000Z,10.7
2023-05-18T06:52:56.000Z,10.7
2023-05-18T06:54:11.000Z,10.8
2023-05-18T06:55:27.000Z,10.8
2023-05-18T06:56:43.000Z,10.9
2023-05-18T06:57:59.000Z,10.9
2023-05-18T06:59:16.000Z,11
2023-05-18T07:00:32.000Z,11
2023-05-18T07:01:48.000Z,11
2023-05-18T07:03:04.000Z,11.1
2023-05-18T07:04:20.000Z,11.1
2023-05-18T07:05:36.000Z,11.2
2023-05-18T07:06:52.000Z,11.3
2023-05-18T07:08:09.000Z,11.3
2023-05-18T07:09:25.000Z,11.4
2023-05-18T07:10:40.000Z,11.4
2023-05-18T07:11:56.000Z,11.4
2023-05-18T07:13:12.000Z,11.5
2023-05-18T07:14:28.000Z,11.5
2023-05-18T07:15:44.000Z,11.5
2023-05-18T07:17:01.000Z,11.5
2023-05-18T07:18:17.000Z,11.6
2023-05-18T07:19:33.000Z,11.6
2023-05-18T07:20:49.000Z,11.7
2023-05-18T07:22:05.000Z,11.7
2023-05-18T07:23:21.000Z,11.8
2023-05-18T07:24:37.000Z,11.9
2023-05-18T07:25:54.000Z,12
2023-05-18T07:27:09.000Z,12.3
2023-05-18T07:28:25.000Z,12.6
2023-05-18T07:29:41.000Z,12.9
2023-05-18T07:30:57.000Z,13.3
2023-05-18T07:32:13.000Z,13.6
2023-05-18T07:33:29.000Z,14
2023-05-18T07:34:46.000Z,14.4
2023-05-18T07:36:02.000Z,14.8
2023-05-18T07:37:18.000Z,15.1
2023-05-18T07:38:34.000Z,15.5
2023-05-18T07:39:50.000Z,15.8
2023-05-18T07:41:06.000Z,16.1
2023-05-18T07:42:22.000Z,16.4
2023-05-18T07:43:38.000Z,16.7
2023-05-18T07:44:54.000Z,17
2023-05-18T07:46:10.000Z,17.2
2023-05-18T07:47:26.000Z,17.5
2023-05-18T07:48:42.000Z,17.7
2023-05-18T07:49:58.000Z,17.9
2023-05-18T07:51:14.000Z,18.1
2023-05-18T07:52:31.000Z,18.3
2023-05-18T07:53:47.000Z,18.6
2023-05-18T07:55:03.000Z,18.7
2023-05-18T07:56:19.000Z,18.8
2023-05-18T07:57:35.000Z,18.9
2023-05-18T07:58:51.000Z,18.9
2023-05-18T08:00:06.000Z,18.8
2023-05-18T08:01:22.000Z,18.8
2023-05-18T08:02:39.000Z,18.9
2023-05-18T08:05:11.000Z,19.1
2023-05-18T08:06:27.000Z,19.2
2023-05-18T08:07:43.000Z,19
2023-05-18T08:08:59.000Z,19.2
2023-05-18T08:10:15.000Z,19.2
2023-05-18T08:11:32.000Z,19.3
2023-05-18T08:12:48.000Z,19.3
2023-05-18T08:14:04.000Z,19.3
2023-05-18T08:15:20.000Z,19.4
2023-05-18T08:16:35.000Z,19.6
2023-05-18T08:17:51.000Z,19.7
2023-05-18T08:19:07.000Z,19.9
2023-05-18T08:20:24.000Z,20.2
2023-05-18T08:21:40.000Z,20.5
2023-05-18T08:22:56.000Z,20.7
2023-05-18T08:24:12.000Z,20.9
2023-05-18T08:25:28.000Z,21.1
2023-05-18T08:26:44.000Z,21.2
2023-05-18T08:28:00.000Z,21.3
2023-05-18T08:29:17.000Z,21.4
2023-05-18T08:30:33.000Z,21.6
2023-05-18T08:31:49.000Z,21.8
2023-05-18T08:33:04.000Z,22
2023-05-18T08:34:20.000Z,22.3
2023-05-18T08:35:36.000Z,22.6
2023-05-18T08:36:52.000Z,22.8
2023-05-18T08:38:09.000Z,23.1
2023-05-18T08:39:25.000Z,23.2
2023-05-18T08:40:40.000Z,23.4
2023-05-18T08:41:56.000Z,23.5
2023-05-18T08:43:12.000Z,23.6
2023-05-18T08:44:28.000Z,23.7
2023-05-18T08:45:44.000Z,23.8
2023-05-18T08:47:01.000Z,24
2023-05-18T08:48:17.000Z,24.1
2023-05-18T08:49:33.000Z,24.3
2023-05-18T08:50:49.000Z,24.4
2023-05-18T08:52:05.000Z,24.5
2023-05-18T08:53:21.000Z,24.6
2023-05-18T08:54:37.000Z,24.7
2023-05-18T08:55:54.000Z,24.8
2023-05-18T08:57:09.000Z,24.9
2023-05-18T08:58:25.000Z,25
2023-05-18T08:59:41.000Z,25
2023-05-18T09:00:57.000Z,25.1
2023-05-18T09:02:13.000Z,25.2
2023-05-18T09:03:29.000Z,25.3
2023-05-18T09:06:02.000Z,25.6
2023-05-18T09:07:18.000Z,25.7
2023-05-18T09:08:34.000Z,25.8
2023-05-18T09:09:50.000Z,25.9
2023-05-18T09:11:06.000Z,26
2023-05-18T09:12:22.000Z,26
2023-05-18T09:13:38.000Z,26.1
2023-05-18T09:14:54.000Z,26.1
2023-05-18T09:16:10.000Z,26.1
2023-05-18T09:17:26.000Z,26.1
2023-05-18T09:18:42.000Z,26.1
2023-05-18T09:19:58.000Z,26.2
2023-05-18T09:21:14.000Z,26.1
2023-05-18T09:22:31.000Z,26.1
2023-05-18T09:23:47.000Z,26.1
2023-05-18T09:25:03.000Z,26
2023-05-18T09:26:19.000Z,26
2023-05-18T09:27:35.000Z,26
2023-05-18T09:28:51.000Z,25.9
2023-05-18T09:30:06.000Z,25.8
2023-05-18T09:31:23.000Z,25.7
2023-05-18T09:32:39.000Z,25.6
2023-05-18T09:33:55.000Z,25.4
2023-05-18T09:35:11.000Z,25.1
2023-05-18T09:36:27.000Z,24.9
2023-05-18T09:37:43.000Z,24.8
2023-05-18T09:38:59.000Z,24.6
2023-05-18T09:40:16.000Z,24.5
2023-05-18T09:41:32.000Z,24.3
2023-05-18T09:42:48.000Z,24.1
2023-05-18T09:44:04.000Z,24
2023-05-18T09:45:20.000Z,24
2023-05-18T09:46:35.000Z,24
2023-05-18T09:47:51.000Z,23.9
2023-05-18T09:49:07.000Z,23.9
2023-05-18T09:50:24.000Z,23.9
2023-05-18T09:51:40.000Z,23.8
2023-05-18T09:52:56.000Z,23.8
2023-05-18T09:54:12.000Z,23.7
2023-05-18T09:55:28.000Z,23.6
2023-05-18T09:56:44.000Z,23.6
2023-05-18T09:58:00.000Z,23.6
2023-05-18T09:59:17.000Z,23.6
2023-05-18T10:00:33.000Z,23.7
2023-05-18T10:01:49.000Z,23.7
2023-05-18T10:03:04.000Z,23.7
2023-05-18T10:04:20.000Z,23.8
2023-05-18T10:05:36.000Z,23.9
2023-05-18T10:06:52.000Z,23.9
2023-05-18T10:08:09.000Z,24
2023-05-18T10:09:25.000Z,24.1
2023-05-18T10:10:41.000Z,24.1
2023-05-18T10:11:57.000Z,24.2
2023-05-18T10:13:13.000Z,24.2
2023-05-18T10:14:29.000Z,24.3
2023-05-18T10:15:45.000Z,24.3
2023-05-18T10:17:02.000Z,24.4
2023-05-18T10:18:18.000Z,24.4
2023-05-18T10:19:33.000Z,24.5
2023-05-18T10:20:49.000Z,24.5
2023-05-18T10:22:05.000Z,24.6
2023-05-18T10:23:21.000Z,24.7
2023-05-18T10:24:37.000Z,24.7
2023-05-18T10:25:54.000Z,24.8
2023-05-18T10:27:10.000Z,24.9
2023-05-18T10:28:26.000Z,24.9
2023-05-18T10:29:42.000Z,25
2023-05-18T10:30:58.000Z,25
2023-05-18T10:32:14.000Z,25
2023-05-18T10:33:30.000Z,25
2023-05-18T10:34:46.000Z,25.1
2023-05-18T10:36:02.000Z,25.1
2023-05-18T10:37:18.000Z,25.1
2023-05-18T10:38:34.000Z,25.1
2023-05-18T10:39:50.000Z,25.1
2023-05-18T10:41:06.000Z,25.2
2023-05-18T10:42:22.000Z,25.2
2023-05-18T10:43:38.000Z,25.2
2023-05-18T10:44:55.000Z,25.3
2023-05-18T10:46:11.000Z,25.3
2023-05-18T10:47:27.000Z,25.4
2023-05-18T10:48:43.000Z,25.4
2023-05-18T10:49:59.000Z,25.4
2023-05-18T10:51:15.000Z,25.4
2023-05-18T10:52:30.000Z,25.4
2023-05-18T10:53:47.000Z,25.4
2023-05-18T10:55:03.000Z,25.4
2023-05-18T10:56:19.000Z,25.4
2023-05-18T10:57:35.000Z,25.5
2023-05-18T10:58:51.000Z,25.5
2023-05-18T11:00:07.000Z,25.5
2023-05-18T11:01:23.000Z,25.5
2023-05-18T11:02:40.000Z,25.5
2023-05-18T11:03:56.000Z,25.5
2023-05-18T11:05:12.000Z,25.5
2023-05-18T11:06:28.000Z,25.6
2023-05-18T11:07:44.000Z,25.6
2023-05-18T11:08:59.000Z,25.7
2023-05-18T11:10:15.000Z,25.7
2023-05-18T11:11:32.000Z,25.8
2023-05-18T11:12:48.000Z,25.8
2023-05-18T11:14:04.000Z,25.8
2023-05-18T11:15:20.000Z,25.9
2023-05-18T11:16:36.000Z,25.9
2023-05-18T11:17:52.000Z,25.9
2023-05-18T11:19:08.000Z,26
2023-05-18T11:20:25.000Z,26
2023-05-18T11:21:41.000Z,26
2023-05-18T11:22:57.000Z,26
2023-05-18T11:24:13.000Z,26.1
2023-05-18T11:25:28.000Z,26
2023-05-18T11:26:44.000Z,26.1
2023-05-18T11:28:00.000Z,26.1
2023-05-18T11:29:17.000Z,26.1
2023-05-18T11:30:33.000Z,26.1
2023-05-18T11:31:49.000Z,26.1
2023-05-18T11:33:05.000Z,26.2
2023-05-18T11:34:21.000Z,26.2
2023-05-18T11:35:37.000Z,26.3
2023-05-18T11:36:53.000Z,26.2
2023-05-18T11:38:09.000Z,26.2
2023-05-18T11:39:26.000Z,26.1
2023-05-18T11:40:42.000Z,26.2
2023-05-18T11:41:57.000Z,26.2
2023-05-18T11:43:13.000Z,26.2
2023-05-18T11:44:29.000Z,26.2
2023-05-18T11:45:45.000Z,26.2
2023-05-18T11:47:01.000Z,26.2
2023-05-18T11:48:18.000Z,26.2
2023-05-18T11:49:34.000Z,26.2
2023-05-18T11:50:50.000Z,26.3
2023-05-18T11:52:06.000Z,26.3
2023-05-18T11:53:22.000Z,26.4
2023-05-18T11:54:38.000Z,26.4
2023-05-18T11:55:54.000Z,26.4
2023-05-18T11:57:11.000Z,26.4
2023-05-18T11:58:26.000Z,26.3
2023-05-18T11:59:42.000Z,26.3
2023-05-18T12:00:58.000Z,26.4
2023-05-18T12:02:14.000Z,26.4
2023-05-18T12:03:30.000Z,26.5
2023-05-18T12:04:46.000Z,26.5
2023-05-18T12:06:03.000Z,26.5
2023-05-18T12:07:19.000Z,26.5
2023-05-18T12:08:35.000Z,26.5
2023-05-18T12:09:51.000Z,26.5
2023-05-18T12:11:07.000Z,26.6
2023-05-18T12:12:23.000Z,26.7
2023-05-18T12:13:39.000Z,26.7
2023-05-18T12:14:55.000Z,26.7
2023-05-18T12:16:11.000Z,26.7
2023-05-18T12:17:27.000Z,26.7
2023-05-18T12:18:43.000Z,26.8
2023-05-18T12:19:59.000Z,26.9
2023-05-18T12:21:15.000Z,26.9
2023-05-18T12:22:31.000Z,27.1
2023-05-18T12:23:48.000Z,27.2
2023-05-18T12:25:04.000Z,27.1
2023-05-18T12:26:20.000Z,26.9
2023-05-18T12:27:36.000Z,26.8
2023-05-18T12:28:52.000Z,26.9
2023-05-18T12:30:08.000Z,26.8
2023-05-18T12:31:23.000Z,26.9
2023-05-18T12:32:40.000Z,26.9
2023-05-18T12:33:56.000Z,26.9
2023-05-18T12:35:12.000Z,27
2023-05-18T12:36:28.000Z,26.9
2023-05-18T12:37:44.000Z,26.9
2023-05-18T12:39:00.000Z,26.9
2023-05-18T12:40:16.000Z,26.9
2023-05-18T12:41:32.000Z,26.9
2023-05-18T12:42:49.000Z,26.9
2023-05-18T12:44:05.000Z,26.9
2023-05-18T12:45:21.000Z,26.8
2023-05-18T12:46:37.000Z,26.8
2023-05-18T12:47:52.000Z,26.8
2023-05-18T12:49:08.000Z,26.7
2023-05-18T12:50:24.000Z,26.7
2023-05-18T12:51:41.000Z,26.7
2023-05-18T12:52:57.000Z,26.7
2023-05-18T12:54:13.000Z,26.8
2023-05-18T12:55:28.000Z,26.8
2023-05-18T12:56:44.000Z,26.9
2023-05-18T12:58:00.000Z,26.9
2023-05-18T12:59:16.000Z,26.9
2023-05-18T13:00:33.000Z,26.9
2023-05-18T13:01:49.000Z,26.8
2023-05-18T13:03:05.000Z,26.7
2023-05-18T13:04:21.000Z,26.8
2023-05-18T13:05:37.000Z,26.8
2023-05-18T13:06:53.000Z,26.8
2023-05-18T13:08:09.000Z,26.8
2023-05-18T13:09:26.000Z,26.8
2023-05-18T13:11:58.000Z,26.8
2023-05-18T13:13:13.000Z,26.8
2023-05-18T13:14:29.000Z,26.9
2023-05-18T13:15:45.000Z,26.9
2023-05-18T13:17:01.000Z,26.8
2023-05-18T13:18:18.000Z,26.8
2023-05-18T13:19:34.000Z,26.7
2023-05-18T13:20:50.000Z,26.7
2023-05-18T13:22:06.000Z,26.8
2023-05-18T13:23:22.000Z,26.8
2023-05-18T13:24:38.000Z,26.8
2023-05-18T13:25:54.000Z,26.8
2023-05-18T13:27:11.000Z,26.7
2023-05-18T13:28:27.000Z,26.7
2023-05-18T13:29:42.000Z,26.7
2023-05-18T13:30:58.000Z,26.6
2023-05-18T13:32:14.000Z,26.6
2023-05-18T13:33:30.000Z,26.5
2023-05-18T13:34:46.000Z,26.4
2023-05-18T13:36:03.000Z,26.4
2023-05-18T13:37:19.000Z,26.4
2023-05-18T13:38:35.000Z,26.4
2023-05-18T13:39:51.000Z,26.4
2023-05-18T13:41:07.000Z,26.4
2023-05-18T13:42:23.000Z,26.4
2023-05-18T13:43:39.000Z,26.3
2023-05-18T13:44:55.000Z,26.3
2023-05-18T13:46:11.000Z,26.2
2023-05-18T13:47:27.000Z,26.2
2023-05-18T13:48:43.000Z,26.2
2023-05-18T13:49:59.000Z,26.2
2023-05-18T13:51:15.000Z,26.1
2023-05-18T13:52:31.000Z,26.2
2023-05-18T13:53:47.000Z,26.2
2023-05-18T13:55:04.000Z,26.1
2023-05-18T13:56:20.000Z,26.1
2023-05-18T13:57:36.000Z,26.1
2023-05-18T13:58:52.000Z,26
2023-05-18T14:00:08.000Z,26
2023-05-18T14:01:24.000Z,26
2023-05-18T14:02:39.000Z,26
2023-05-18T14:03:56.000Z,25.9
2023-05-18T14:05:12.000Z,25.7
2023-05-18T14:06:28.000Z,25.6
2023-05-18T14:07:44.000Z,25.7
2023-05-18T14:09:00.000Z,25.7
2023-05-18T14:10:16.000Z,25.7
2023-05-18T14:11:32.000Z,25.7
2023-05-18T14:12:49.000Z,25.7
2023-05-18T14:14:05.000Z,25.7
2023-05-18T14:16:37.000Z,25.5
2023-05-18T14:17:53.000Z,25.6
2023-05-18T14:19:08.000Z,25.7
2023-05-18T14:20:24.000Z,25.7
2023-05-18T14:21:41.000Z,25.6
2023-05-18T14:22:57.000Z,25.5
2023-05-18T14:24:13.000Z,25.4
2023-05-18T14:25:29.000Z,25.3
2023-05-18T14:26:45.000Z,25.3
2023-05-18T14:28:01.000Z,25.2
2023-05-18T14:29:17.000Z,25.2
2023-05-18T14:30:34.000Z,25
2023-05-18T14:31:50.000Z,24.9
2023-05-18T14:33:06.000Z,24.8
2023-05-18T14:34:22.000Z,24.6
2023-05-18T14:35:37.000Z,24.5
2023-05-18T14:36:53.000Z,24.5
2023-05-18T14:38:09.000Z,24.4
2023-05-18T14:39:26.000Z,24.1
2023-05-18T14:40:42.000Z,23.9
2023-05-18T14:41:58.000Z,23.8
2023-05-18T14:43:14.000Z,23.6
2023-05-18T14:44:30.000Z,23.5
2023-05-18T14:45:46.000Z,23.4
2023-05-18T14:47:02.000Z,23.2
2023-05-18T14:48:18.000Z,23.1
2023-05-18T14:49:35.000Z,23
2023-05-18T14:50:51.000Z,22.8
2023-05-18T14:52:06.000Z,22.7
2023-05-18T14:53:22.000Z,22.6
2023-05-18T14:54:38.000Z,22.5
2023-05-18T14:55:54.000Z,22.5
2023-05-18T14:57:10.000Z,22.4
2023-05-18T14:58:27.000Z,22.3
2023-05-18T14:59:43.000Z,22.2
2023-05-18T15:00:59.000Z,22.2
2023-05-18T15:02:15.000Z,22.1
2023-05-18T15:03:31.000Z,22.1
2023-05-18T15:04:47.000Z,22.1
2023-05-18T15:06:03.000Z,22
2023-05-18T15:07:20.000Z,22
2023-05-18T15:08:35.000Z,22
2023-05-18T15:09:51.000Z,21.9
2023-05-18T15:11:07.000Z,21.9
2023-05-18T15:12:23.000Z,21.9
2023-05-18T15:13:39.000Z,21.8
2023-05-18T15:14:55.000Z,21.8
2023-05-18T15:16:12.000Z,21.8
2023-05-18T15:17:28.000Z,21.8
2023-05-18T15:18:44.000Z,21.7
2023-05-18T15:20:00.000Z,21.7
2023-05-18T15:21:16.000Z,21.6
2023-05-18T15:22:32.000Z,21.6
2023-05-18T15:23:48.000Z,21.5
2023-05-18T15:25:04.000Z,21.4
2023-05-18T15:26:20.000Z,21.4
2023-05-18T15:27:36.000Z,21.3
2023-05-18T15:28:52.000Z,21.2
2023-05-18T15:30:08.000Z,21.2
2023-05-18T15:31:24.000Z,21.2
2023-05-18T15:32:40.000Z,21.1
2023-05-18T15:33:57.000Z,21.1
2023-05-18T15:35:13.000Z,21.1
2023-05-18T15:36:29.000Z,21
2023-05-18T15:37:45.000Z,21
2023-05-18T15:39:01.000Z,21
2023-05-18T15:40:17.000Z,20.9
2023-05-18T15:41:32.000Z,20.9
2023-05-18T15:42:48.000Z,20.9
2023-05-18T15:44:05.000Z,20.8
2023-05-18T15:45:21.000Z,20.8
2023-05-18T15:46:37.000Z,20.8
2023-05-18T15:47:53.000Z,20.7
2023-05-18T15:49:09.000Z,20.7
2023-05-18T15:50:25.000Z,20.7
2023-05-18T15:51:41.000Z,20.6
2023-05-18T15:54:14.000Z,20.4
2023-05-18T15:55:30.000Z,20.4
2023-05-18T15:56:46.000Z,20.3
2023-05-18T15:58:01.000Z,20.3
2023-05-18T15:59:17.000Z,20.2
2023-05-18T16:00:33.000Z,20.1
2023-05-18T16:01:50.000Z,20
2023-05-18T16:03:06.000Z,20
2023-05-18T16:04:22.000Z,19.9
2023-05-18T16:05:38.000Z,19.8
2023-05-18T16:06:54.000Z,19.8
2023-05-18T16:08:10.000Z,19.8
2023-05-18T16:09:26.000Z,19.7
2023-05-18T16:10:43.000Z,19.7
2023-05-18T16:11:59.000Z,19.7
2023-05-18T16:13:15.000Z,19.7
2023-05-18T16:14:30.000Z,19.7
2023-05-18T16:15:46.000Z,19.6
2023-05-18T16:17:02.000Z,19.6
2023-05-18T16:18:18.000Z,19.6
2023-05-18T16:19:35.000Z,19.6
2023-05-18T16:20:51.000Z,19.6
2023-05-18T16:22:07.000Z,19.6
2023-05-18T16:23:23.000Z,19.5
2023-05-18T16:24:39.000Z,19.5
2023-05-18T16:25:55.000Z,19.5
2023-05-18T16:27:11.000Z,19.5
2023-05-18T16:28:28.000Z,19.5
2023-05-18T16:29:44.000Z,19.4
2023-05-18T16:30:59.000Z,19.4
2023-05-18T16:32:15.000Z,19.4
2023-05-18T16:33:31.000Z,19.4
2023-05-18T16:34:47.000Z,19.4
2023-05-18T16:36:03.000Z,19.4
2023-05-18T16:37:20.000Z,19.3
2023-05-18T16:38:36.000Z,19.3
2023-05-18T16:39:52.000Z,19.3
2023-05-18T16:41:08.000Z,19.3
2023-05-18T16:42:24.000Z,19.3
2023-05-18T16:43:40.000Z,19.3
2023-05-18T16:44:56.000Z,19.3
2023-05-18T16:46:12.000Z,19.2
2023-05-18T16:47:28.000Z,19.2
2023-05-18T16:48:44.000Z,19.2
2023-05-18T16:50:00.000Z,19.2
2023-05-18T16:51:16.000Z,19.2
2023-05-18T16:52:32.000Z,19.2
2023-05-18T16:53:48.000Z,19.2
2023-05-18T16:55:05.000Z,19.2
2023-05-18T16:56:21.000Z,19.2
2023-05-18T16:57:37.000Z,19.1
2023-05-18T16:58:53.000Z,19.1
2023-05-18T17:00:09.000Z,19.1
2023-05-18T17:01:25.000Z,19
2023-05-18T17:02:41.000Z,19
2023-05-18T17:03:56.000Z,19
2023-05-18T17:05:13.000Z,18.9
2023-05-18T17:06:29.000Z,18.9
2023-05-18T17:07:45.000Z,18.8
2023-05-18T17:09:01.000Z,18.8
2023-05-18T17:10:16.000Z,18.8
2023-05-18T17:11:32.000Z,18.8
2023-05-18T17:12:48.000Z,18.7
2023-05-18T17:14:05.000Z,18.7
2023-05-18T17:15:21.000Z,18.7
2023-05-18T17:16:37.000Z,18.6
2023-05-18T17:17:53.000Z,18.6
2023-05-18T17:19:09.000Z,18.6
2023-05-18T17:20:25.000Z,18.5